Littleton, New Hampshire
Current Conditions -  °F | °C
As of 7:52 AM on Thursday 27 Nov 2014 (Local Time) from KHIE Reporting Station
Overcast Overcast  
Wind Chill: 25°   Ceiling: 3300
Heat Index: 25°   Visibility: 8mi
Dew Point: 20°   Wind: 0mph
Humidity: 81%   Direction: NA
Pressure: 29.87"   Gusts: NA
Location:  44.31°N, 71.77°W
Report Text: KHIE 271252Z AUTO 00000KT 8SM FEW016 BKN033 OVC050 M04/M07 A2987 RMK AO2 SLP132 T10391067
Loading
Personal Weather Stations






























Interactive Weather Map New forecast layout! Learn more

10-Day Weather Forecast

Advertisements
Track Severe Weather on mobile